createdAt,value
2022-12-18T00:00:51.631Z,83.50
2022-12-18T00:01:51.680Z,76.50
2022-12-18T00:02:51.692Z,106.10
2022-12-18T00:03:51.798Z,90.10
2022-12-18T00:04:51.611Z,81.70
2022-12-18T00:05:51.626Z,83.30
2022-12-18T00:06:51.602Z,63.90
2022-12-18T00:07:51.596Z,57.30
2022-12-18T00:08:51.603Z,57.60
2022-12-18T00:09:51.599Z,60.10
2022-12-18T00:10:51.589Z,61.80
2022-12-18T00:11:51.571Z,64.30
2022-12-18T00:12:51.558Z,64.40
2022-12-18T00:13:51.562Z,66.00
2022-12-18T00:14:51.583Z,66.30
2022-12-18T00:15:51.599Z,67.40
2022-12-18T00:16:51.556Z,69.30
2022-12-18T00:17:51.539Z,66.60
2022-12-18T00:18:51.525Z,75.20
2022-12-18T00:19:51.523Z,74.60
2022-12-18T00:20:51.535Z,83.30
2022-12-18T00:21:51.529Z,82.30
2022-12-18T00:22:51.498Z,79.20
2022-12-18T00:23:51.502Z,88.10
2022-12-18T00:24:51.501Z,94.90
2022-12-18T00:25:51.496Z,85.00
2022-12-18T00:26:51.500Z,74.30
2022-12-18T00:27:51.533Z,65.60
2022-12-18T00:28:51.475Z,62.10
2022-12-18T00:29:52.132Z,65.30
2022-12-18T00:30:51.450Z,63.90
2022-12-18T00:31:51.580Z,63.50
2022-12-18T00:32:51.474Z,62.60
2022-12-18T00:33:54.530Z,64.70
2022-12-18T00:34:51.468Z,69.80
2022-12-18T00:35:51.449Z,69.70
2022-12-18T00:36:51.439Z,66.10
2022-12-18T00:37:51.409Z,72.70
2022-12-18T00:38:51.411Z,73.30
2022-12-18T00:39:51.411Z,73.20
2022-12-18T00:40:51.426Z,73.20
2022-12-18T00:41:51.437Z,69.40
2022-12-18T00:42:51.423Z,69.30
2022-12-18T00:43:51.372Z,70.80
2022-12-18T00:44:51.381Z,66.10
2022-12-18T00:45:51.434Z,65.10
2022-12-18T00:46:51.395Z,68.00
2022-12-18T00:47:51.533Z,69.10
2022-12-18T00:48:51.349Z,65.20
2022-12-18T00:49:51.350Z,66.40
2022-12-18T00:50:51.351Z,66.50
2022-12-18T00:51:51.333Z,66.50
2022-12-18T00:52:51.328Z,69.90
2022-12-18T00:53:51.362Z,67.20
2022-12-18T00:54:51.401Z,69.00
2022-12-18T00:55:51.358Z,70.80
2022-12-18T00:56:51.332Z,74.30
2022-12-18T00:57:51.309Z,71.70
2022-12-18T00:58:51.295Z,74.30
2022-12-18T00:59:51.303Z,72.30
2022-12-18T01:00:51.655Z,73.40
2022-12-18T01:01:51.465Z,73.20
2022-12-18T01:02:51.382Z,73.60
2022-12-18T01:03:51.281Z,71.50
2022-12-18T01:04:51.293Z,72.80
2022-12-18T01:05:51.290Z,73.60
2022-12-18T01:06:51.266Z,73.00
2022-12-18T01:07:51.241Z,71.90
2022-12-18T01:08:51.273Z,73.20
2022-12-18T01:09:51.216Z,71.80
2022-12-18T01:10:51.354Z,70.00
2022-12-18T01:11:51.221Z,65.40
2022-12-18T01:12:51.208Z,66.00
2022-12-18T01:13:51.197Z,61.60
2022-12-18T01:14:51.222Z,63.50
2022-12-18T01:15:51.256Z,65.70
2022-12-18T01:16:51.194Z,67.00
2022-12-18T01:17:51.226Z,70.40
2022-12-18T01:18:51.297Z,70.00
2022-12-18T01:19:51.169Z,69.20
2022-12-18T01:20:51.150Z,68.00
2022-12-18T01:21:51.146Z,69.30
2022-12-18T01:22:51.149Z,68.40
2022-12-18T01:23:51.162Z,66.90
2022-12-18T01:24:51.126Z,66.60
2022-12-18T01:25:51.116Z,65.30
2022-12-18T01:26:51.111Z,65.80
2022-12-18T01:27:51.112Z,67.40
2022-12-18T01:28:51.118Z,68.10
2022-12-18T01:29:51.105Z,66.90
2022-12-18T01:30:51.110Z,66.80
2022-12-18T01:31:51.151Z,64.00
2022-12-18T01:32:51.215Z,64.10
2022-12-18T01:33:51.093Z,66.20
2022-12-18T01:34:51.117Z,79.70
2022-12-18T01:35:51.067Z,80.90
2022-12-18T01:36:51.063Z,82.80
2022-12-18T01:37:51.079Z,75.00
2022-12-18T01:38:51.082Z,77.80
2022-12-18T01:39:51.092Z,72.40
2022-12-18T01:40:51.197Z,77.80
2022-12-18T01:41:51.034Z,71.00
2022-12-18T01:42:51.103Z,86.70
2022-12-18T01:43:51.047Z,81.50
2022-12-18T01:44:51.028Z,76.30
2022-12-18T01:45:51.073Z,71.90
2022-12-18T01:46:51.227Z,70.80
2022-12-18T01:47:51.009Z,67.60
2022-12-18T01:48:51.018Z,69.30
2022-12-18T01:49:50.995Z,67.30
2022-12-18T01:50:50.984Z,65.20
2022-12-18T01:51:51.012Z,61.80
2022-12-18T01:52:51.053Z,62.30
2022-12-18T01:53:50.968Z,63.40
2022-12-18T01:54:51.029Z,64.30
2022-12-18T01:55:51.002Z,69.30
2022-12-18T01:56:50.958Z,67.40
2022-12-18T01:57:51.009Z,70.70
2022-12-18T01:58:50.955Z,71.50
2022-12-18T01:59:50.924Z,77.80
2022-12-18T02:00:51.012Z,63.20
2022-12-18T02:01:50.980Z,61.70
2022-12-18T02:02:51.063Z,61.20
2022-12-18T02:03:50.929Z,62.70
2022-12-18T02:04:50.917Z,66.10
2022-12-18T02:05:50.924Z,60.80
2022-12-18T02:06:50.932Z,59.50
2022-12-18T02:07:50.880Z,58.40
2022-12-18T02:08:50.886Z,60.80
2022-12-18T02:09:50.897Z,61.80
2022-12-18T02:10:50.880Z,60.40
2022-12-18T02:11:50.900Z,61.80
2022-12-18T02:12:50.937Z,64.40
2022-12-18T02:13:50.868Z,63.40
2022-12-18T02:14:50.852Z,62.10
2022-12-18T02:15:50.848Z,65.30
2022-12-18T02:16:50.861Z,59.80
2022-12-18T02:17:50.818Z,63.40
2022-12-18T02:18:50.888Z,66.60
2022-12-18T02:19:50.817Z,62.50
2022-12-18T02:20:50.818Z,64.90
2022-12-18T02:21:50.861Z,65.40
2022-12-18T02:22:50.847Z,70.00
2022-12-18T02:23:50.794Z,78.10
2022-12-18T02:24:50.795Z,75.80
2022-12-18T02:25:50.779Z,78.80
2022-12-18T02:26:50.763Z,83.90
2022-12-18T02:27:50.798Z,79.10
2022-12-18T02:28:57.842Z,69.10
2022-12-18T02:29:57.635Z,67.90
2022-12-18T02:30:51.819Z,68.90
2022-12-18T02:31:50.758Z,67.90
2022-12-18T02:32:50.739Z,73.70
2022-12-18T02:33:50.749Z,75.90
2022-12-18T02:34:50.719Z,79.90
2022-12-18T02:35:50.716Z,78.50
2022-12-18T02:36:50.719Z,74.00
2022-12-18T02:37:50.726Z,68.80
2022-12-18T02:38:50.695Z,67.30
2022-12-18T02:39:50.710Z,64.00
2022-12-18T02:40:50.687Z,69.60
2022-12-18T02:41:50.703Z,69.50
2022-12-18T02:42:50.664Z,69.30
2022-12-18T02:43:50.661Z,72.40
2022-12-18T02:44:50.744Z,71.10
2022-12-18T02:45:50.705Z,71.70
2022-12-18T02:46:50.664Z,68.70
2022-12-18T02:47:50.668Z,69.60
2022-12-18T02:48:50.639Z,68.50
2022-12-18T02:49:50.639Z,66.20
2022-12-18T02:50:50.628Z,65.30
2022-12-18T02:51:50.623Z,65.50
2022-12-18T02:52:50.633Z,63.40
2022-12-18T02:53:50.605Z,64.90
2022-12-18T02:54:51.432Z,66.50
2022-12-18T02:55:50.587Z,65.00
2022-12-18T02:56:50.571Z,68.60
2022-12-18T02:57:50.574Z,68.30
2022-12-18T02:58:50.561Z,68.00
2022-12-18T02:59:50.585Z,70.60
2022-12-18T03:00:50.720Z,68.50
2022-12-18T03:01:50.698Z,71.30
2022-12-18T03:02:50.612Z,66.70
2022-12-18T03:03:50.552Z,62.60
2022-12-18T03:04:50.534Z,63.50
2022-12-18T03:05:50.523Z,61.70
2022-12-18T03:06:50.545Z,62.70
2022-12-18T03:07:50.513Z,63.60
2022-12-18T03:08:50.503Z,59.10
2022-12-18T03:09:50.505Z,62.20
2022-12-18T03:10:50.505Z,58.70
2022-12-18T03:11:50.514Z,59.60
2022-12-18T03:12:50.486Z,64.60
2022-12-18T03:13:50.478Z,64.30
2022-12-18T03:14:50.469Z,61.60
2022-12-18T03:15:50.466Z,59.30
2022-12-18T03:16:50.611Z,63.50
2022-12-18T03:17:50.463Z,61.90
2022-12-18T03:18:50.449Z,59.40
2022-12-18T03:19:50.456Z,59.10
2022-12-18T03:20:50.434Z,62.50
2022-12-18T03:21:50.452Z,61.30
2022-12-18T03:22:50.426Z,59.90
2022-12-18T03:23:50.417Z,61.60
2022-12-18T03:24:50.413Z,59.60
2022-12-18T03:25:50.408Z,60.30
2022-12-18T03:26:50.417Z,59.00
2022-12-18T03:27:50.428Z,62.10
2022-12-18T03:28:50.385Z,63.70
2022-12-18T03:29:50.389Z,60.40
2022-12-18T03:30:50.405Z,61.20
2022-12-18T03:31:50.375Z,60.70
2022-12-18T03:32:50.439Z,63.10
2022-12-18T03:33:50.390Z,61.10
2022-12-18T03:34:50.361Z,61.30
2022-12-18T03:35:50.351Z,62.00
2022-12-18T03:36:50.340Z,71.00
2022-12-18T03:37:50.338Z,74.10
2022-12-18T03:38:50.327Z,68.00
2022-12-18T03:39:50.364Z,64.50
2022-12-18T03:40:50.312Z,65.20
2022-12-18T03:41:50.322Z,60.40
2022-12-18T03:42:50.304Z,60.70
2022-12-18T03:43:50.326Z,64.70
2022-12-18T03:44:50.298Z,62.30
2022-12-18T03:45:50.397Z,64.00
2022-12-18T03:46:50.308Z,62.20
2022-12-18T03:47:50.284Z,66.00
2022-12-18T03:48:50.355Z,62.20
2022-12-18T03:49:50.274Z,62.80
2022-12-18T03:50:50.256Z,64.50
2022-12-18T03:51:50.266Z,65.60
2022-12-18T03:52:50.268Z,61.90
2022-12-18T03:53:50.250Z,58.60
2022-12-18T03:54:50.238Z,60.80
2022-12-18T03:55:50.261Z,59.40
2022-12-18T03:56:50.247Z,59.30
2022-12-18T03:57:50.229Z,59.30
2022-12-18T03:58:50.215Z,59.70
2022-12-18T03:59:50.213Z,57.00
2022-12-18T04:00:50.203Z,62.10
2022-12-18T04:01:50.340Z,65.90
2022-12-18T04:02:50.182Z,64.00
2022-12-18T04:03:50.223Z,64.20
2022-12-18T04:04:50.247Z,61.30
2022-12-18T04:05:50.170Z,62.20
2022-12-18T04:06:50.162Z,60.60
2022-12-18T04:07:50.191Z,64.40
2022-12-18T04:08:50.156Z,59.50
2022-12-18T04:09:50.150Z,62.40
2022-12-18T04:10:50.142Z,60.10
2022-12-18T04:11:50.136Z,60.30
2022-12-18T04:12:50.133Z,60.50
2022-12-18T04:13:50.148Z,61.50
2022-12-18T04:14:50.111Z,57.30
2022-12-18T04:15:50.168Z,60.50
2022-12-18T04:16:50.104Z,62.50
2022-12-18T04:17:50.097Z,59.30
2022-12-18T04:18:50.095Z,58.70
2022-12-18T04:19:50.112Z,62.70
2022-12-18T04:20:50.161Z,58.90
2022-12-18T04:21:50.078Z,57.00
2022-12-18T04:22:50.072Z,61.00
2022-12-18T04:23:50.064Z,63.00
2022-12-18T04:24:50.069Z,59.70
2022-12-18T04:25:50.050Z,56.90
2022-12-18T04:26:50.042Z,57.80
2022-12-18T04:27:50.057Z,60.70
2022-12-18T04:28:50.026Z,59.80
2022-12-18T04:29:50.026Z,63.00
2022-12-18T04:30:50.088Z,60.00
2022-12-18T04:31:50.008Z,58.90
2022-12-18T04:32:52.291Z,58.60
2022-12-18T04:33:49.996Z,58.20
2022-12-18T04:34:49.992Z,57.40
2022-12-18T04:35:50.001Z,62.40
2022-12-18T04:36:50.056Z,60.80
2022-12-18T04:37:49.974Z,61.90
2022-12-18T04:38:49.993Z,55.50
2022-12-18T04:39:49.974Z,56.90
2022-12-18T04:40:49.952Z,58.50
2022-12-18T04:41:49.944Z,60.00
2022-12-18T04:42:49.956Z,60.30
2022-12-18T04:43:49.938Z,61.50
2022-12-18T04:44:49.949Z,63.80
2022-12-18T04:45:49.933Z,62.00
2022-12-18T04:46:49.990Z,65.50
2022-12-18T04:47:49.904Z,60.20
2022-12-18T04:48:49.905Z,63.00
2022-12-18T04:49:49.896Z,61.30
2022-12-18T04:50:49.910Z,63.50
2022-12-18T04:51:49.880Z,58.40
2022-12-18T04:52:49.974Z,63.70
2022-12-18T04:53:49.872Z,62.90
2022-12-18T04:54:49.859Z,64.00
2022-12-18T04:55:49.856Z,64.20
2022-12-18T04:56:49.854Z,65.90
2022-12-18T04:57:49.841Z,57.40
2022-12-18T04:58:49.862Z,59.50
2022-12-18T04:59:49.837Z,56.20
2022-12-18T05:00:49.822Z,59.40
2022-12-18T05:01:49.874Z,61.00
2022-12-18T05:02:49.975Z,60.50
2022-12-18T05:03:49.908Z,59.50
2022-12-18T05:04:49.804Z,59.40
2022-12-18T05:05:49.797Z,62.10
2022-12-18T05:06:49.805Z,61.40
2022-12-18T05:07:49.806Z,58.60
2022-12-18T05:08:49.856Z,60.80
2022-12-18T05:09:49.773Z,61.10
2022-12-18T05:10:49.795Z,60.80
2022-12-18T05:11:49.759Z,58.30
2022-12-18T05:12:49.745Z,55.40
2022-12-18T05:13:49.766Z,56.80
2022-12-18T05:14:49.742Z,59.40
2022-12-18T05:15:49.762Z,57.00
2022-12-18T05:16:49.726Z,60.40
2022-12-18T05:17:49.725Z,62.30
2022-12-18T05:18:49.714Z,61.50
2022-12-18T05:19:49.736Z,57.90
2022-12-18T05:20:49.697Z,58.30
2022-12-18T05:21:49.691Z,57.40
2022-12-18T05:22:49.711Z,55.70
2022-12-18T05:23:49.702Z,55.30
2022-12-18T05:24:49.765Z,58.30
2022-12-18T05:25:49.682Z,58.30
2022-12-18T05:26:49.670Z,60.10
2022-12-18T05:27:49.694Z,58.60
2022-12-18T05:28:49.665Z,58.90
2022-12-18T05:29:49.671Z,58.70
2022-12-18T05:30:49.713Z,58.60
2022-12-18T05:31:49.667Z,59.70
2022-12-18T05:32:49.637Z,56.60
2022-12-18T05:33:49.643Z,55.80
2022-12-18T05:34:49.621Z,59.70
2022-12-18T05:35:49.629Z,55.20
2022-12-18T05:36:49.630Z,55.20
2022-12-18T05:37:49.609Z,57.10
2022-12-18T05:38:49.607Z,55.90
2022-12-18T05:39:49.591Z,55.50
2022-12-18T05:40:49.671Z,56.60
2022-12-18T05:41:49.608Z,61.20
2022-12-18T05:42:49.577Z,59.70
2022-12-18T05:43:49.585Z,59.20
2022-12-18T05:44:49.567Z,59.50
2022-12-18T05:45:49.565Z,60.60
2022-12-18T05:46:49.715Z,57.80
2022-12-18T05:47:49.565Z,57.20
2022-12-18T05:48:49.536Z,59.20
2022-12-18T05:49:49.536Z,57.40
2022-12-18T05:50:49.549Z,55.40
2022-12-18T05:51:49.515Z,57.50
2022-12-18T05:52:49.526Z,58.60
2022-12-18T05:53:49.508Z,57.80
2022-12-18T05:54:49.529Z,56.50
2022-12-18T05:55:49.506Z,59.20
2022-12-18T05:56:49.624Z,62.40
2022-12-18T05:57:49.491Z,61.30
2022-12-18T05:58:49.484Z,58.30
2022-12-18T05:59:49.497Z,60.40
2022-12-18T06:00:49.478Z,56.00
2022-12-18T06:01:49.625Z,59.80
2022-12-18T06:02:49.596Z,60.50
2022-12-18T06:03:49.509Z,59.30
2022-12-18T06:04:49.445Z,62.80
2022-12-18T06:05:49.441Z,57.80
2022-12-18T06:06:49.454Z,61.70
2022-12-18T06:07:49.439Z,60.40
2022-12-18T06:08:49.449Z,62.00
2022-12-18T06:09:49.418Z,61.60
2022-12-18T06:10:49.420Z,60.80
2022-12-18T06:11:49.409Z,64.20
2022-12-18T06:12:49.479Z,60.80
2022-12-18T06:13:52.434Z,61.30
2022-12-18T06:14:50.396Z,60.90
2022-12-18T06:15:49.438Z,61.20
2022-12-18T06:16:49.386Z,63.60
2022-12-18T06:17:49.391Z,63.00
2022-12-18T06:18:49.368Z,64.50
2022-12-18T06:19:49.376Z,57.20
2022-12-18T06:20:49.378Z,61.70
2022-12-18T06:21:49.362Z,63.00
2022-12-18T06:22:49.355Z,64.30
2022-12-18T06:23:49.351Z,62.30
2022-12-18T06:24:49.339Z,60.70
2022-12-18T06:25:49.352Z,62.60
2022-12-18T06:26:49.341Z,58.50
2022-12-18T06:27:49.324Z,64.70
2022-12-18T06:28:49.388Z,60.00
2022-12-18T06:29:49.306Z,61.70
2022-12-18T06:30:49.320Z,61.30
2022-12-18T06:31:49.357Z,58.80
2022-12-18T06:32:54.636Z,61.00
2022-12-18T06:33:50.289Z,57.20
2022-12-18T06:34:49.286Z,59.00
2022-12-18T06:35:49.280Z,60.40
2022-12-18T06:36:49.279Z,59.90
2022-12-18T06:37:49.253Z,58.50
2022-12-18T06:38:49.253Z,56.80
2022-12-18T06:39:49.261Z,53.80
2022-12-18T06:40:49.243Z,56.00
2022-12-18T06:41:49.237Z,57.00
2022-12-18T06:42:49.243Z,55.20
2022-12-18T06:43:49.249Z,55.90
2022-12-18T06:44:55.143Z,54.80
2022-12-18T06:45:50.394Z,55.50
2022-12-18T06:46:49.239Z,53.60
2022-12-18T06:47:49.208Z,53.80
2022-12-18T06:48:49.198Z,51.70
2022-12-18T06:49:49.199Z,57.50
2022-12-18T06:50:49.176Z,55.00
2022-12-18T06:51:49.181Z,54.60
2022-12-18T06:52:49.188Z,53.10
2022-12-18T06:53:49.165Z,51.50
2022-12-18T06:54:49.182Z,53.00
2022-12-18T06:55:49.152Z,51.40
2022-12-18T06:56:49.169Z,54.00
2022-12-18T06:57:49.151Z,52.90
2022-12-18T06:58:49.135Z,51.50
2022-12-18T06:59:49.133Z,51.80
2022-12-18T07:00:49.175Z,50.30
2022-12-18T07:01:49.378Z,49.70
2022-12-18T07:02:49.210Z,52.20
2022-12-18T07:03:49.107Z,51.50
2022-12-18T07:04:49.095Z,53.50
2022-12-18T07:05:49.091Z,54.10
2022-12-18T07:06:49.079Z,52.10
2022-12-18T07:07:49.079Z,52.00
2022-12-18T07:08:49.095Z,54.90
2022-12-18T07:09:49.067Z,53.80
2022-12-18T07:10:54.339Z,50.60
2022-12-18T07:11:50.077Z,51.00
2022-12-18T07:12:49.049Z,52.10
2022-12-18T07:13:49.046Z,52.30
2022-12-18T07:14:49.053Z,52.40
2022-12-18T07:15:49.027Z,50.30
2022-12-18T07:16:49.057Z,55.80
2022-12-18T07:17:49.100Z,52.80
2022-12-18T07:18:49.030Z,53.40
2022-12-18T07:19:49.019Z,54.50
2022-12-18T07:20:49.010Z,54.40
2022-12-18T07:21:49.000Z,56.90
2022-12-18T07:22:53.355Z,59.00
2022-12-18T07:23:50.006Z,60.40
2022-12-18T07:24:48.983Z,58.00
2022-12-18T07:25:48.997Z,55.20
2022-12-18T07:26:48.976Z,56.00
2022-12-18T07:27:48.964Z,56.00
2022-12-18T07:28:48.949Z,58.20
2022-12-18T07:29:48.981Z,55.80
2022-12-18T07:30:48.974Z,58.40
2022-12-18T07:31:49.013Z,56.80
2022-12-18T07:32:48.934Z,57.00
2022-12-18T07:33:49.046Z,57.40
2022-12-18T07:34:48.926Z,53.60
2022-12-18T07:35:48.923Z,57.00
2022-12-18T07:36:48.919Z,56.00
2022-12-18T07:37:48.907Z,57.20
2022-12-18T07:38:48.905Z,55.20
2022-12-18T07:39:48.927Z,58.30
2022-12-18T07:40:48.893Z,55.50
2022-12-18T07:41:48.897Z,60.70
2022-12-18T07:42:48.884Z,56.10
2022-12-18T07:43:48.885Z,56.00
2022-12-18T07:44:48.872Z,56.00
2022-12-18T07:45:48.938Z,56.00
2022-12-18T07:46:48.860Z,53.40
2022-12-18T07:47:48.854Z,53.30
2022-12-18T07:48:49.704Z,53.20
2022-12-18T07:49:48.917Z,51.70
2022-12-18T07:50:48.830Z,57.70
2022-12-18T07:51:48.853Z,58.50
2022-12-18T07:52:48.846Z,60.90
2022-12-18T07:53:51.313Z,54.00
2022-12-18T07:54:48.817Z,52.50
2022-12-18T07:56:18.456Z,53.10
2022-12-18T07:56:49.807Z,50.00
2022-12-18T07:57:51.830Z,52.50
2022-12-18T07:58:48.786Z,51.60
2022-12-18T07:59:48.786Z,56.60
2022-12-18T08:00:48.819Z,55.60
2022-12-18T08:01:48.937Z,56.70
2022-12-18T08:02:49.000Z,54.80
2022-12-18T08:03:48.768Z,52.50
2022-12-18T08:04:48.754Z,54.70
2022-12-18T08:05:48.847Z,56.80
2022-12-18T08:06:48.742Z,56.40
2022-12-18T08:07:48.738Z,52.10
2022-12-18T08:08:48.748Z,57.50
2022-12-18T08:09:48.727Z,55.00
2022-12-18T08:10:48.743Z,53.50
2022-12-18T08:11:48.715Z,56.80
2022-12-18T08:12:48.706Z,55.00
2022-12-18T08:13:48.701Z,53.70
2022-12-18T08:14:48.707Z,58.90
2022-12-18T08:15:48.699Z,56.50
2022-12-18T08:16:48.726Z,53.80
2022-12-18T08:17:48.705Z,54.00
2022-12-18T08:18:48.668Z,51.60
2022-12-18T08:19:48.674Z,59.00
2022-12-18T08:20:48.664Z,58.90
2022-12-18T08:21:48.739Z,59.10
2022-12-18T08:22:48.682Z,56.20
2022-12-18T08:23:49.046Z,52.60
2022-12-18T08:24:48.664Z,49.70
2022-12-18T08:25:48.635Z,49.60
2022-12-18T08:27:06.663Z,51.90
2022-12-18T08:27:49.635Z,52.90
2022-12-18T08:28:48.610Z,51.60
2022-12-18T08:29:48.611Z,53.60
2022-12-18T08:30:48.639Z,50.30
2022-12-18T08:31:48.647Z,50.10
2022-12-18T08:32:48.592Z,53.10
2022-12-18T08:33:48.610Z,51.90
2022-12-18T08:34:48.596Z,51.30
2022-12-18T08:35:48.567Z,54.10
2022-12-18T08:36:48.578Z,50.50
2022-12-18T08:37:48.635Z,48.50
2022-12-18T08:38:48.544Z,48.90
2022-12-18T08:39:48.563Z,50.60
2022-12-18T08:40:48.570Z,50.50
2022-12-18T08:41:48.527Z,50.20
2022-12-18T08:42:48.535Z,48.40
2022-12-18T08:43:48.517Z,53.30
2022-12-18T08:44:48.533Z,51.00
2022-12-18T08:45:48.610Z,52.90
2022-12-18T08:46:48.503Z,46.00
2022-12-18T08:47:48.503Z,49.90
2022-12-18T08:48:48.493Z,48.70
2022-12-18T08:49:48.508Z,48.20
2022-12-18T08:50:48.473Z,50.30
2022-12-18T08:51:48.487Z,48.80
2022-12-18T08:52:48.465Z,51.60
2022-12-18T08:53:48.538Z,51.90
2022-12-18T08:54:48.472Z,46.50
2022-12-18T08:55:50.417Z,50.40
2022-12-18T08:56:48.439Z,51.90
2022-12-18T08:57:48.432Z,49.20
2022-12-18T08:58:48.420Z,47.60
2022-12-18T08:59:48.452Z,49.40
2022-12-18T09:00:48.417Z,47.30
2022-12-18T09:01:48.583Z,47.70
2022-12-18T09:02:48.505Z,46.60
2022-12-18T09:03:48.401Z,51.20
2022-12-18T09:04:52.370Z,48.10
2022-12-18T09:05:48.382Z,46.10
2022-12-18T09:06:48.382Z,49.10
2022-12-18T09:07:55.431Z,51.00
2022-12-18T09:08:48.356Z,48.80
2022-12-18T09:09:48.456Z,50.30
2022-12-18T09:10:48.373Z,48.10
2022-12-18T09:11:48.352Z,49.40
2022-12-18T09:12:48.343Z,45.40
2022-12-18T09:13:48.351Z,47.10
2022-12-18T09:14:48.335Z,49.30
2022-12-18T09:15:48.318Z,47.80
2022-12-18T09:16:48.331Z,48.30
2022-12-18T09:17:48.305Z,49.50
2022-12-18T09:18:48.298Z,46.60
2022-12-18T09:19:48.312Z,50.10
2022-12-18T09:20:48.282Z,50.20
2022-12-18T09:21:48.820Z,47.90
2022-12-18T09:22:48.288Z,48.40
2022-12-18T09:23:48.269Z,50.30
2022-12-18T09:24:48.252Z,49.30
2022-12-18T09:25:48.363Z,49.80
2022-12-18T09:26:48.256Z,45.80
2022-12-18T09:27:48.239Z,47.70
2022-12-18T09:28:48.230Z,46.60
2022-12-18T09:29:48.232Z,46.40
2022-12-18T09:30:48.298Z,50.10
2022-12-18T09:31:48.242Z,48.30
2022-12-18T09:32:48.204Z,45.90
2022-12-18T09:33:48.411Z,46.30
2022-12-18T09:34:48.218Z,49.60
2022-12-18T09:35:48.191Z,46.10
2022-12-18T09:36:48.189Z,49.00
2022-12-18T09:37:48.218Z,46.90
2022-12-18T09:38:48.767Z,48.10
2022-12-18T09:39:48.173Z,50.90
2022-12-18T09:40:48.182Z,45.80
2022-12-18T09:41:48.265Z,48.40
2022-12-18T09:42:48.471Z,48.60
2022-12-18T09:43:48.162Z,49.00
2022-12-18T09:44:48.153Z,52.80
2022-12-18T09:45:48.172Z,49.50
2022-12-18T09:46:48.231Z,51.40
2022-12-18T09:47:48.260Z,49.30
2022-12-18T09:48:48.117Z,52.30
2022-12-18T09:49:48.116Z,53.70
2022-12-18T09:50:48.092Z,50.20
2022-12-18T09:51:48.102Z,50.50
2022-12-18T09:52:48.110Z,51.20
2022-12-18T09:53:48.077Z,52.50
2022-12-18T09:54:48.057Z,51.80
2022-12-18T09:55:48.061Z,53.60
2022-12-18T09:56:48.053Z,55.60
2022-12-18T09:57:48.121Z,54.40
2022-12-18T09:58:48.056Z,52.40
2022-12-18T09:59:48.035Z,54.00
2022-12-18T10:00:48.035Z,53.10
2022-12-18T10:01:48.158Z,51.40
2022-12-18T10:02:48.179Z,53.80
2022-12-18T10:03:48.012Z,51.60
2022-12-18T10:04:48.060Z,51.80
2022-12-18T10:05:48.738Z,50.30
2022-12-18T10:06:48.014Z,53.10
2022-12-18T10:07:48.004Z,52.00
2022-12-18T10:08:48.001Z,52.10
2022-12-18T10:09:47.991Z,52.80
2022-12-18T10:10:47.975Z,51.30
2022-12-18T10:11:47.962Z,49.90
2022-12-18T10:12:47.980Z,51.80
2022-12-18T10:13:48.025Z,51.00
2022-12-18T10:14:47.942Z,53.40
2022-12-18T10:15:47.976Z,50.50
2022-12-18T10:16:47.940Z,50.80
2022-12-18T10:17:47.922Z,51.40
2022-12-18T10:18:47.947Z,50.20
2022-12-18T10:19:47.918Z,52.40
2022-12-18T10:20:47.923Z,53.70
2022-12-18T10:21:47.893Z,53.60
2022-12-18T10:22:47.906Z,54.80
2022-12-18T10:23:48.789Z,52.60
2022-12-18T10:24:47.872Z,51.10
2022-12-18T10:25:47.868Z,53.50
2022-12-18T10:26:47.906Z,51.20
2022-12-18T10:27:47.900Z,51.60
2022-12-18T10:28:47.881Z,51.90
2022-12-18T10:29:48.326Z,54.80
2022-12-18T10:30:48.259Z,51.90
2022-12-18T10:31:47.820Z,50.40
2022-12-18T10:32:47.836Z,53.40
2022-12-18T10:33:47.812Z,51.40
2022-12-18T10:34:48.039Z,53.90
2022-12-18T10:35:47.810Z,55.10
2022-12-18T10:36:47.803Z,52.90
2022-12-18T10:37:47.797Z,57.40
2022-12-18T10:38:47.806Z,51.80
2022-12-18T10:39:47.787Z,53.30
2022-12-18T10:40:47.779Z,51.10
2022-12-18T10:41:47.778Z,51.70
2022-12-18T10:42:47.755Z,53.40
2022-12-18T10:43:47.780Z,51.90
2022-12-18T10:44:47.774Z,49.20
2022-12-18T10:45:47.811Z,51.80
2022-12-18T10:46:47.795Z,54.40
2022-12-18T10:47:47.748Z,54.60
2022-12-18T10:48:47.732Z,53.90
2022-12-18T10:49:47.738Z,53.90
2022-12-18T10:51:10.486Z,52.70
2022-12-18T10:51:48.701Z,53.70
2022-12-18T10:52:47.699Z,52.30
2022-12-18T10:53:48.432Z,54.20
2022-12-18T10:54:47.692Z,50.50
2022-12-18T10:55:48.034Z,51.90
2022-12-18T10:56:47.677Z,51.90
2022-12-18T10:57:47.664Z,52.00
2022-12-18T10:58:47.650Z,56.30
2022-12-18T10:59:47.663Z,54.50
2022-12-18T11:00:47.642Z,54.10
2022-12-18T11:01:47.876Z,50.10
2022-12-18T11:02:47.802Z,52.50
2022-12-18T11:03:47.698Z,52.10
2022-12-18T11:04:47.626Z,56.00
2022-12-18T11:05:47.636Z,51.50
2022-12-18T11:06:47.618Z,52.80
2022-12-18T11:07:47.601Z,50.80
2022-12-18T11:08:47.590Z,52.80
2022-12-18T11:09:47.585Z,51.90
2022-12-18T11:10:47.575Z,49.40
2022-12-18T11:11:47.599Z,51.90
2022-12-18T11:12:47.581Z,50.20
2022-12-18T11:13:47.559Z,52.70
2022-12-18T11:14:47.753Z,50.50
2022-12-18T11:15:47.598Z,53.20
2022-12-18T11:17:23.793Z,49.70
2022-12-18T11:17:48.631Z,51.60
2022-12-18T11:18:47.524Z,50.50
2022-12-18T11:19:47.542Z,51.20
2022-12-18T11:20:47.525Z,53.00
2022-12-18T11:21:47.513Z,49.40
2022-12-18T11:22:47.523Z,50.50
2022-12-18T11:23:47.497Z,51.50
2022-12-18T11:25:08.335Z,53.40
2022-12-18T11:25:48.497Z,55.50
2022-12-18T11:26:47.465Z,54.50
2022-12-18T11:27:47.479Z,54.30
2022-12-18T11:28:47.448Z,54.80
2022-12-18T11:29:47.477Z,53.90
2022-12-18T11:30:47.441Z,53.60
2022-12-18T11:31:47.503Z,51.80
2022-12-18T11:32:47.435Z,55.90
2022-12-18T11:34:05.132Z,52.50
2022-12-18T11:34:48.447Z,54.50
2022-12-18T11:35:47.406Z,53.10
2022-12-18T11:36:47.419Z,52.80
2022-12-18T11:37:47.397Z,52.20
2022-12-18T11:38:47.405Z,53.70
2022-12-18T11:39:47.387Z,55.20
2022-12-18T11:40:47.390Z,54.70
2022-12-18T11:41:47.380Z,53.50
2022-12-18T11:42:47.366Z,53.50
2022-12-18T11:43:47.366Z,55.40
2022-12-18T11:44:47.370Z,53.20
2022-12-18T11:45:47.354Z,53.30
2022-12-18T11:46:47.431Z,55.80
2022-12-18T11:47:47.390Z,57.40
2022-12-18T11:48:47.336Z,53.20
2022-12-18T11:49:47.390Z,53.20
2022-12-18T11:50:47.315Z,57.70
2022-12-18T11:51:47.331Z,54.70
2022-12-18T11:52:51.509Z,54.70
2022-12-18T11:53:48.301Z,55.30
2022-12-18T11:54:47.306Z,57.20
2022-12-18T11:55:47.287Z,57.70
2022-12-18T11:56:47.272Z,63.50
2022-12-18T11:57:47.270Z,62.90
2022-12-18T11:58:47.277Z,60.20
2022-12-18T11:59:47.259Z,61.40
2022-12-18T12:00:47.274Z,58.30
2022-12-18T12:01:47.405Z,58.30
2022-12-18T12:02:47.386Z,56.20
2022-12-18T12:03:47.283Z,61.10
2022-12-18T12:04:47.213Z,59.70
2022-12-18T12:05:47.306Z,57.00
2022-12-18T12:06:47.227Z,55.60
2022-12-18T12:07:47.211Z,59.10
2022-12-18T12:08:47.226Z,58.30
2022-12-18T12:09:47.185Z,57.60
2022-12-18T12:10:47.673Z,58.50
2022-12-18T12:11:47.198Z,59.60
2022-12-18T12:12:48.859Z,63.20
2022-12-18T12:13:47.224Z,59.50
2022-12-18T12:14:47.157Z,57.80
2022-12-18T12:15:47.155Z,64.30
2022-12-18T12:16:47.171Z,59.50
2022-12-18T12:17:47.144Z,56.70
2022-12-18T12:18:47.129Z,59.10
2022-12-18T12:19:47.158Z,56.80
2022-12-18T12:20:47.114Z,58.40
2022-12-18T12:21:47.190Z,58.40
2022-12-18T12:22:47.139Z,59.40
2022-12-18T12:23:47.149Z,56.90
2022-12-18T12:24:47.122Z,63.20
2022-12-18T12:25:47.095Z,56.40
2022-12-18T12:26:47.107Z,60.80
2022-12-18T12:27:47.100Z,67.70
2022-12-18T12:28:47.087Z,59.30
2022-12-18T12:29:47.076Z,62.60
2022-12-18T12:30:47.049Z,64.00
2022-12-18T12:31:47.202Z,58.80
2022-12-18T12:32:47.658Z,59.70
2022-12-18T12:33:47.074Z,59.10
2022-12-18T12:34:47.026Z,55.70
2022-12-18T12:35:47.027Z,57.80
2022-12-18T12:36:47.025Z,55.00
2022-12-18T12:37:47.108Z,59.40
2022-12-18T12:38:51.700Z,55.80
2022-12-18T12:39:48.020Z,60.30
2022-12-18T12:40:53.897Z,56.80
2022-12-18T12:41:47.987Z,64.30
2022-12-18T12:42:46.975Z,58.80
2022-12-18T12:43:50.901Z,62.10
2022-12-18T12:44:51.237Z,59.70
2022-12-18T12:45:48.061Z,61.00
2022-12-18T12:46:46.983Z,59.80
2022-12-18T12:47:46.949Z,62.30
2022-12-18T12:48:46.933Z,57.50
2022-12-18T12:49:46.946Z,56.40
2022-12-18T12:50:46.919Z,61.60
2022-12-18T12:51:46.928Z,62.10
2022-12-18T12:52:46.915Z,60.30